createdAt,value
2023-12-12T00:04:28.851Z,93.74
2023-12-12T00:08:37.750Z,93.65
2023-12-12T00:09:23.806Z,92.53
2023-12-12T00:10:23.879Z,91.87
2023-12-12T00:11:23.833Z,91.12
2023-12-12T00:12:24.705Z,90.52
2023-12-12T00:15:13.142Z,91.77
2023-12-12T00:23:54.742Z,92.98
2023-12-12T00:26:14.914Z,91.72
2023-12-12T00:27:14.925Z,90.66
2023-12-12T00:28:14.907Z,89.68
2023-12-12T00:32:42.126Z,89.57
2023-12-12T00:33:41.172Z,88.22
2023-12-12T00:40:29.742Z,91.76
2023-12-12T00:53:10.837Z,90.60
2023-12-12T00:54:11.159Z,90.15
2023-12-12T00:55:10.772Z,90.15
2023-12-12T00:56:10.684Z,90.13
2023-12-12T00:58:44.896Z,90.66
2023-12-12T00:59:31.754Z,90.79
2023-12-12T01:07:44.937Z,93.32
2023-12-12T01:10:57.205Z,92.99
2023-12-12T01:11:45.015Z,91.73
2023-12-12T01:14:04.936Z,91.41
2023-12-12T01:15:05.006Z,91.05
2023-12-12T01:18:17.652Z,92.57
2023-12-12T01:22:00.306Z,91.46
2023-12-12T01:23:00.290Z,90.76
2023-12-12T01:24:00.184Z,90.28
2023-12-12T01:27:42.133Z,92.48
2023-12-12T01:30:02.353Z,92.85
2023-12-12T01:31:03.317Z,91.57
2023-12-12T01:32:02.362Z,91.27
2023-12-12T01:33:03.236Z,91.17
2023-12-12T01:34:02.239Z,91.02
2023-12-12T01:35:02.250Z,90.91
2023-12-12T01:39:20.095Z,93.09
2023-12-12T01:43:25.492Z,93.75
2023-12-12T01:46:30.349Z,94.11
2023-12-12T01:47:30.582Z,92.89
2023-12-12T01:48:30.407Z,92.40
2023-12-12T01:49:30.428Z,92.17
2023-12-12T01:50:30.230Z,92.02
2023-12-12T01:55:35.501Z,94.21
2023-12-12T01:56:35.406Z,92.88
2023-12-12T01:57:35.375Z,92.22
2023-12-12T02:08:34.695Z,93.84
2023-12-12T02:12:14.788Z,92.45
2023-12-12T02:13:14.729Z,91.89
2023-12-12T02:26:28.255Z,93.11
2023-12-12T02:30:08.397Z,91.78
2023-12-12T02:31:08.299Z,91.30
2023-12-12T02:32:08.500Z,90.99
2023-12-12T02:33:07.540Z,90.72
2023-12-12T02:34:07.922Z,90.45
2023-12-12T02:35:07.524Z,90.32
2023-12-12T02:36:07.412Z,90.02
2023-12-12T02:39:01.745Z,89.88
2023-12-12T02:58:03.355Z,91.91
2023-12-12T03:00:23.381Z,91.35
2023-12-12T03:05:45.919Z,93.17
2023-12-12T03:06:45.792Z,91.82
2023-12-12T03:11:49.950Z,91.47
2023-12-12T03:14:35.959Z,91.69
2023-12-12T03:15:35.800Z,90.23
2023-12-12T03:16:35.878Z,89.90
2023-12-12T03:18:55.746Z,90.78
2023-12-12T03:19:56.262Z,89.97
2023-12-12T03:20:56.138Z,89.75
2023-12-12T03:21:56.445Z,89.65
2023-12-12T03:22:55.828Z,89.75
2023-12-12T03:25:16.155Z,90.36
2023-12-12T03:26:15.613Z,89.82
2023-12-12T03:27:15.721Z,89.14
2023-12-12T03:34:36.290Z,89.88
2023-12-12T03:35:36.103Z,89.28
2023-12-12T03:36:36.039Z,89.05
2023-12-12T03:38:56.534Z,89.42
2023-12-12T03:39:58.072Z,89.21
2023-12-12T03:51:14.646Z,91.73
2023-12-12T03:52:13.486Z,90.43
2023-12-12T03:53:14.740Z,90.07
2023-12-12T03:54:13.346Z,89.98
2023-12-12T03:55:13.378Z,89.96
2023-12-12T03:56:13.471Z,89.93
2023-12-12T03:57:13.495Z,89.90
2023-12-12T03:58:13.330Z,89.94
2023-12-12T03:59:13.655Z,90.00
2023-12-12T04:00:13.384Z,89.96
2023-12-12T04:01:13.536Z,89.85
2023-12-12T04:02:13.381Z,89.69
2023-12-12T04:03:13.657Z,89.56
2023-12-12T04:04:13.654Z,89.37
2023-12-12T04:05:14.561Z,89.26
2023-12-12T04:06:13.121Z,89.33
2023-12-12T04:07:13.269Z,89.47
2023-12-12T04:08:13.440Z,89.47
2023-12-12T04:09:13.142Z,89.73
2023-12-12T04:10:13.336Z,89.60
2023-12-12T04:11:13.616Z,89.49
2023-12-12T04:12:13.253Z,89.45
2023-12-12T04:13:13.589Z,89.43
2023-12-12T04:14:13.606Z,89.48
2023-12-12T04:15:13.195Z,89.50
2023-12-12T04:16:13.558Z,89.55
2023-12-12T04:18:33.209Z,90.12
2023-12-12T04:27:08.389Z,91.77
2023-12-12T04:28:08.218Z,91.27
2023-12-12T04:33:03.491Z,93.28
2023-12-12T04:40:20.209Z,90.75
2023-12-12T04:52:47.916Z,90.75
2023-12-12T04:53:47.746Z,90.25
2023-12-12T04:56:08.245Z,90.60
2023-12-12T05:02:34.468Z,92.78
2023-12-12T05:05:13.215Z,92.86
2023-12-12T05:09:34.232Z,91.69
2023-12-12T05:18:37.280Z,93.19
2023-12-12T05:22:54.194Z,93.26
2023-12-12T05:25:15.038Z,92.34
2023-12-12T05:26:13.263Z,91.71
2023-12-12T05:27:13.512Z,91.42
2023-12-12T05:28:13.596Z,91.32
2023-12-12T05:31:19.452Z,91.73
2023-12-12T05:34:59.207Z,91.91
2023-12-12T05:35:59.203Z,91.40
2023-12-12T05:43:19.037Z,93.77
2023-12-12T05:44:18.927Z,92.41
2023-12-12T05:45:19.523Z,91.87
2023-12-12T05:46:18.771Z,91.60
2023-12-12T05:47:18.733Z,91.44
2023-12-12T05:48:19.104Z,91.31
2023-12-12T05:49:19.199Z,91.19
2023-12-12T05:50:18.843Z,91.09
2023-12-12T05:51:18.733Z,91.05
2023-12-12T05:52:18.937Z,90.94
2023-12-12T05:53:18.784Z,90.88
2023-12-12T05:54:18.707Z,90.76
2023-12-12T05:55:18.913Z,90.69
2023-12-12T05:56:18.675Z,90.67
2023-12-12T05:57:19.438Z,90.68
2023-12-12T05:58:18.726Z,90.60
2023-12-12T05:59:18.817Z,90.61
2023-12-12T06:00:18.610Z,90.54
2023-12-12T06:01:19.273Z,90.57
2023-12-12T06:02:18.719Z,90.55
2023-12-12T06:03:18.640Z,90.55
2023-12-12T06:04:19.203Z,90.58
2023-12-12T06:05:20.183Z,90.57
2023-12-12T06:06:18.777Z,90.56
2023-12-12T06:07:19.224Z,90.53
2023-12-12T06:08:18.562Z,90.56
2023-12-12T06:09:18.644Z,90.56
2023-12-12T06:10:18.609Z,90.56
2023-12-12T06:11:18.588Z,90.57
2023-12-12T06:12:18.625Z,90.61
2023-12-12T06:13:18.723Z,90.59
2023-12-12T06:14:18.614Z,90.70
2023-12-12T06:15:19.414Z,90.69
2023-12-12T06:16:18.984Z,90.67
2023-12-12T06:17:18.954Z,90.69
2023-12-12T06:18:18.663Z,90.75
2023-12-12T06:19:18.702Z,90.81
2023-12-12T06:20:18.568Z,90.67
2023-12-12T06:21:19.478Z,90.66
2023-12-12T06:22:19.025Z,90.63
2023-12-12T06:23:19.390Z,90.57
2023-12-12T06:24:19.405Z,90.42
2023-12-12T06:25:19.505Z,90.41
2023-12-12T06:26:19.621Z,90.34
2023-12-12T06:27:20.452Z,90.32
2023-12-12T06:28:19.550Z,90.31
2023-12-12T06:29:18.642Z,90.25
2023-12-12T06:30:18.749Z,90.31
2023-12-12T06:31:18.837Z,90.27
2023-12-12T06:32:18.735Z,90.28
2023-12-12T06:33:18.811Z,90.33
2023-12-12T06:34:19.540Z,90.32
2023-12-12T06:35:18.926Z,90.38
2023-12-12T06:36:20.107Z,90.42
2023-12-12T06:37:18.716Z,90.46
2023-12-12T06:38:18.670Z,90.47
2023-12-12T06:39:18.767Z,90.61
2023-12-12T06:40:18.725Z,90.62
2023-12-12T06:41:18.768Z,90.63
2023-12-12T06:42:21.453Z,90.64
2023-12-12T06:43:19.444Z,90.68
2023-12-12T06:44:18.623Z,90.73
2023-12-12T06:45:18.731Z,90.86
2023-12-12T06:46:18.757Z,90.82
2023-12-12T06:47:18.594Z,90.93
2023-12-12T06:48:18.702Z,90.92
2023-12-12T06:49:19.430Z,90.92
2023-12-12T06:50:19.439Z,90.85
2023-12-12T06:51:19.588Z,90.84
2023-12-12T06:52:20.522Z,90.84
2023-12-12T06:53:18.572Z,90.90
2023-12-12T06:54:18.533Z,90.94
2023-12-12T06:55:18.827Z,90.88
2023-12-12T06:56:18.770Z,90.84
2023-12-12T06:57:19.715Z,90.88
2023-12-12T06:58:19.053Z,90.89
2023-12-12T06:59:19.025Z,90.81
2023-12-12T07:00:18.419Z,90.82
2023-12-12T07:01:20.519Z,90.76
2023-12-12T07:02:18.751Z,90.67
2023-12-12T07:03:18.482Z,90.63
2023-12-12T07:04:18.617Z,90.59
2023-12-12T07:05:18.665Z,90.59
2023-12-12T07:06:19.567Z,90.55
2023-12-12T07:07:18.612Z,90.53
2023-12-12T07:08:18.637Z,90.53
2023-12-12T07:09:18.649Z,90.55
2023-12-12T07:10:18.721Z,90.54
2023-12-12T07:11:18.392Z,90.62
2023-12-12T07:12:18.468Z,90.63
2023-12-12T07:13:18.694Z,90.68
2023-12-12T07:14:18.890Z,90.67
2023-12-12T07:15:18.534Z,90.72
2023-12-12T07:16:19.831Z,90.77
2023-12-12T07:17:18.728Z,90.87
2023-12-12T07:18:18.753Z,90.84
2023-12-12T07:19:18.837Z,90.92
2023-12-12T07:20:20.007Z,90.99
2023-12-12T07:21:19.487Z,91.09
2023-12-12T07:23:38.543Z,91.36
2023-12-12T07:24:38.707Z,91.25
2023-12-12T07:25:38.602Z,91.16
2023-12-12T07:26:38.681Z,91.14
2023-12-12T07:27:38.480Z,91.14
2023-12-12T07:31:40.949Z,93.39
2023-12-12T07:32:40.673Z,92.01
2023-12-12T07:33:40.611Z,91.57
2023-12-12T07:34:40.537Z,91.37
2023-12-12T07:35:40.480Z,91.29
2023-12-12T07:36:40.465Z,91.13
2023-12-12T07:39:01.043Z,91.63
2023-12-12T07:40:03.120Z,91.29
2023-12-12T07:41:05.251Z,91.17
2023-12-12T07:45:10.409Z,91.50
2023-12-12T07:57:01.610Z,91.21
2023-12-12T07:58:01.339Z,90.55
2023-12-12T08:01:12.621Z,91.90
2023-12-12T08:02:12.304Z,90.40
2023-12-12T08:03:12.391Z,89.89
2023-12-12T08:04:12.325Z,89.66
2023-12-12T08:07:10.881Z,91.34
2023-12-12T08:08:10.346Z,89.90
2023-12-12T08:12:50.229Z,90.07
2023-12-12T08:13:52.886Z,89.66
2023-12-12T08:14:50.827Z,89.50
2023-12-12T08:15:49.819Z,89.41
2023-12-12T08:16:49.764Z,89.28
2023-12-12T08:17:49.798Z,89.16
2023-12-12T08:24:05.130Z,90.84
2023-12-12T08:25:04.465Z,89.08
2023-12-12T08:26:04.453Z,88.48
2023-12-12T08:27:04.473Z,88.11
2023-12-12T08:28:04.535Z,87.76
2023-12-12T08:29:04.376Z,87.59
2023-12-12T08:30:04.456Z,87.39
2023-12-12T08:32:55.033Z,87.72
2023-12-12T08:33:54.088Z,87.47
2023-12-12T08:34:53.846Z,87.48
2023-12-12T08:35:53.669Z,87.45
2023-12-12T08:46:16.416Z,90.14
2023-12-12T08:47:15.451Z,88.65
2023-12-12T08:48:15.337Z,88.35
2023-12-12T08:49:15.351Z,88.15
2023-12-12T08:55:32.654Z,88.69
2023-12-12T08:56:30.466Z,88.23
2023-12-12T08:57:31.014Z,88.06
2023-12-12T08:58:30.740Z,87.95
2023-12-12T08:59:33.833Z,87.91
2023-12-12T09:02:32.133Z,90.01
2023-12-12T09:03:29.539Z,88.59
2023-12-12T09:04:29.642Z,88.23
2023-12-12T09:05:29.641Z,88.04
2023-12-12T09:06:28.854Z,87.78
2023-12-12T09:13:02.281Z,88.54
2023-12-12T09:14:10.851Z,88.05
2023-12-12T09:33:27.128Z,88.59
2023-12-12T09:42:03.189Z,90.33
2023-12-12T09:43:03.662Z,88.75
2023-12-12T09:44:04.085Z,88.39
2023-12-12T09:45:01.532Z,88.24
2023-12-12T09:46:03.113Z,88.07
2023-12-12T09:47:02.374Z,87.99
2023-12-12T09:48:05.647Z,87.82
2023-12-12T09:49:02.481Z,87.76
2023-12-12T10:08:05.088Z,87.97
2023-12-12T10:08:59.293Z,87.41
2023-12-12T10:09:57.681Z,87.04
2023-12-12T10:10:57.931Z,86.84
2023-12-12T10:11:57.412Z,86.71
2023-12-12T10:12:57.526Z,86.59
2023-12-12T10:36:00.729Z,85.81
2023-12-12T10:36:59.864Z,85.38
2023-12-12T10:38:04.816Z,85.32
2023-12-12T10:38:59.626Z,85.21
2023-12-12T10:40:02.444Z,85.15
2023-12-12T10:49:02.622Z,85.86
2023-12-12T10:50:03.374Z,85.12
2023-12-12T10:51:00.686Z,84.89
2023-12-12T10:52:00.583Z,84.85
2023-12-12T10:53:02.335Z,84.90
2023-12-12T10:54:02.568Z,84.78
2023-12-12T10:55:01.584Z,84.52
2023-12-12T10:56:08.921Z,84.39
2023-12-12T10:57:01.510Z,83.90
2023-12-12T10:58:00.577Z,83.47
2023-12-12T10:59:55.448Z,83.23
2023-12-12T11:00:09.832Z,83.25
2023-12-12T11:01:02.090Z,83.16
2023-12-12T11:02:00.551Z,83.11
2023-12-12T11:03:00.610Z,82.92
2023-12-12T11:04:06.606Z,82.71
2023-12-12T11:05:06.960Z,82.79
2023-12-12T11:06:05.320Z,82.63
2023-12-12T11:07:12.629Z,82.71
2023-12-12T11:09:59.947Z,84.92
2023-12-12T11:12:18.655Z,83.23
2023-12-12T11:13:18.470Z,82.89
2023-12-12T11:14:21.481Z,82.73
2023-12-12T11:15:23.353Z,82.45
2023-12-12T11:16:25.238Z,82.35
2023-12-12T11:17:18.238Z,82.15
2023-12-12T11:18:20.650Z,81.60
2023-12-12T11:19:18.376Z,81.13
2023-12-12T11:20:18.630Z,80.22
2023-12-12T11:21:24.162Z,79.73
2023-12-12T11:22:22.778Z,79.45
2023-12-12T11:23:28.220Z,79.22
2023-12-12T11:24:23.998Z,79.29
2023-12-12T11:25:18.378Z,79.36
2023-12-12T11:26:18.911Z,79.35
2023-12-12T11:27:18.367Z,79.24
2023-12-12T11:31:46.484Z,79.67
2023-12-12T11:32:37.241Z,79.34
2023-12-12T11:33:37.077Z,79.42
2023-12-12T11:34:36.853Z,79.50
2023-12-12T11:35:39.744Z,79.85
2023-12-12T11:36:39.623Z,80.22
2023-12-12T11:37:37.051Z,80.03
2023-12-12T11:38:36.926Z,80.11
2023-12-12T11:54:03.173Z,83.16
2023-12-12T11:55:00.747Z,81.59
2023-12-12T11:56:05.021Z,81.11
2023-12-12T11:57:00.073Z,80.82
2023-12-12T11:58:00.032Z,80.58
2023-12-12T11:59:00.210Z,80.78
2023-12-12T12:00:00.063Z,80.80
2023-12-12T12:10:04.754Z,83.84
2023-12-12T12:10:58.865Z,82.06
2023-12-12T12:11:58.466Z,81.67
2023-12-12T12:13:08.352Z,81.52
2023-12-12T12:14:00.704Z,81.38
2023-12-12T12:14:57.590Z,81.22
2023-12-12T12:15:57.709Z,81.12
2023-12-12T12:16:58.829Z,80.61
2023-12-12T12:17:57.728Z,79.82
2023-12-12T12:20:50.616Z,78.73
2023-12-12T12:21:47.296Z,78.12
2023-12-12T12:22:47.054Z,77.75
2023-12-12T12:25:47.354Z,78.25
2023-12-12T12:26:47.534Z,76.88
2023-12-12T12:27:46.819Z,76.83
2023-12-12T12:28:46.858Z,76.93
2023-12-12T12:29:46.840Z,76.49
2023-12-12T12:30:49.849Z,76.61
2023-12-12T12:31:47.082Z,76.81
2023-12-12T12:32:47.573Z,76.73
2023-12-12T12:33:46.873Z,76.80
2023-12-12T12:34:46.814Z,76.61
2023-12-12T12:35:46.868Z,76.18
2023-12-12T12:36:46.870Z,75.92
2023-12-12T12:37:46.899Z,76.03
2023-12-12T12:38:47.570Z,76.27
2023-12-12T12:39:46.815Z,76.70
2023-12-12T12:40:47.008Z,76.95
2023-12-12T12:41:46.709Z,76.88
2023-12-12T12:42:49.015Z,76.42
2023-12-12T12:43:47.753Z,76.20
2023-12-12T12:44:46.842Z,76.39
2023-12-12T12:45:47.055Z,76.65
2023-12-12T13:06:34.708Z,77.67
2023-12-12T13:07:28.165Z,76.10
2023-12-12T13:08:28.047Z,75.81
2023-12-12T13:09:28.652Z,76.15
2023-12-12T13:10:39.537Z,75.92
2023-12-12T13:11:28.898Z,76.30
2023-12-12T13:12:27.898Z,75.99
2023-12-12T13:13:28.865Z,75.89
2023-12-12T13:14:27.690Z,75.88
2023-12-12T13:15:27.775Z,75.83
2023-12-12T13:16:27.719Z,75.94
2023-12-12T13:17:28.885Z,76.23
2023-12-12T13:18:27.689Z,76.42
2023-12-12T13:33:30.928Z,78.93
2023-12-12T13:34:27.422Z,79.09
2023-12-12T13:35:35.658Z,79.08
2023-12-12T13:36:28.369Z,79.27
2023-12-12T13:37:27.273Z,79.25
2023-12-12T13:38:28.582Z,79.50
2023-12-12T13:39:27.349Z,79.36
2023-12-12T13:40:27.341Z,79.16
2023-12-12T13:41:27.290Z,79.42
2023-12-12T13:42:27.324Z,79.29
2023-12-12T13:43:27.294Z,79.25
2023-12-12T13:44:27.356Z,78.81
2023-12-12T13:45:27.293Z,78.45
2023-12-12T13:46:27.537Z,78.15
2023-12-12T13:49:02.513Z,78.61
2023-12-12T13:49:48.041Z,78.79
2023-12-12T13:50:46.940Z,78.63
2023-12-12T13:51:48.230Z,78.74
2023-12-12T13:52:46.964Z,78.84
2023-12-12T13:55:51.110Z,80.37
2023-12-12T14:01:14.260Z,80.90
2023-12-12T14:02:12.223Z,79.04
2023-12-12T14:03:06.371Z,78.61
2023-12-12T14:04:06.431Z,78.62
2023-12-12T14:05:07.148Z,78.82
2023-12-12T14:06:06.957Z,79.09
2023-12-12T14:09:27.041Z,81.59
2023-12-12T14:18:15.418Z,84.34
2023-12-12T14:21:54.843Z,82.84
2023-12-12T14:23:01.367Z,82.19
2023-12-12T14:23:55.646Z,81.97
2023-12-12T14:35:33.269Z,83.11
2023-12-12T14:36:39.794Z,82.45
2023-12-12T14:37:35.552Z,82.43
2023-12-12T14:38:33.002Z,82.46
2023-12-12T14:55:47.863Z,85.50
2023-12-12T14:59:01.543Z,85.45
2023-12-12T14:59:52.568Z,83.88
2023-12-12T15:00:53.075Z,83.61
2023-12-12T15:01:53.050Z,83.67
2023-12-12T15:04:12.798Z,84.27
2023-12-12T15:05:17.157Z,84.04
2023-12-12T15:06:29.744Z,84.30
2023-12-12T15:07:13.126Z,84.58
2023-12-12T15:08:12.130Z,84.81
2023-12-12T15:10:35.709Z,85.37
2023-12-12T15:11:31.884Z,84.98
2023-12-12T15:12:32.656Z,84.85
2023-12-12T15:17:30.352Z,87.38
2023-12-12T15:18:23.107Z,86.03
2023-12-12T15:22:49.957Z,87.53
2023-12-12T15:23:39.528Z,86.00
2023-12-12T15:24:40.045Z,85.85
2023-12-12T15:26:05.562Z,85.79
2023-12-12T15:26:48.085Z,85.82
2023-12-12T15:27:41.058Z,85.90
2023-12-12T15:33:16.221Z,88.31
2023-12-12T15:34:15.279Z,86.84
2023-12-12T15:35:14.940Z,86.60
2023-12-12T15:36:23.041Z,86.54
2023-12-12T15:37:15.880Z,86.40
2023-12-12T15:41:13.753Z,88.08
2023-12-12T15:42:12.873Z,86.49
2023-12-12T15:43:13.963Z,86.28
2023-12-12T15:44:15.091Z,86.13
2023-12-12T15:47:06.704Z,87.80
2023-12-12T15:52:57.851Z,88.15
2023-12-12T15:53:44.125Z,86.67
2023-12-12T15:54:44.310Z,86.27
2023-12-12T15:55:44.473Z,85.93
2023-12-12T15:56:53.246Z,85.86
2023-12-12T15:57:45.574Z,85.87
2023-12-12T15:58:46.244Z,85.71
2023-12-12T15:59:44.304Z,85.67
2023-12-12T16:00:44.350Z,85.71
2023-12-12T16:10:06.885Z,88.75
2023-12-12T16:10:59.966Z,87.18
2023-12-12T16:11:59.994Z,86.65
2023-12-12T16:23:23.231Z,88.57
2023-12-12T16:28:26.807Z,86.89
2023-12-12T16:29:26.784Z,86.49
2023-12-12T16:44:05.579Z,88.52
2023-12-12T16:45:05.011Z,86.80
2023-12-12T16:47:50.598Z,87.95
2023-12-12T16:48:50.374Z,86.53
2023-12-12T16:53:23.110Z,88.50
2023-12-12T16:58:12.739Z,89.09
2023-12-12T17:01:06.915Z,89.05
2023-12-12T17:02:06.277Z,87.48
2023-12-12T17:03:06.264Z,87.18
2023-12-12T17:05:48.360Z,88.72
2023-12-12T17:11:00.037Z,88.93
2023-12-12T17:12:02.363Z,87.31
2023-12-12T17:16:31.990Z,89.41
2023-12-12T17:17:29.952Z,87.90
2023-12-12T17:18:31.118Z,87.70
2023-12-12T17:19:30.783Z,87.61
2023-12-12T17:20:29.812Z,87.65
2023-12-12T17:32:15.381Z,90.72
2023-12-12T17:33:14.668Z,88.96
2023-12-12T17:34:14.894Z,88.51
2023-12-12T17:35:14.817Z,88.27
2023-12-12T17:36:15.985Z,88.04
2023-12-12T17:39:17.550Z,89.75
2023-12-12T17:43:51.588Z,89.99
2023-12-12T17:49:31.304Z,90.08
2023-12-12T17:53:02.910Z,90.07
2023-12-12T17:53:58.799Z,88.59
2023-12-12T17:55:00.754Z,88.10
2023-12-12T17:55:59.025Z,87.93
2023-12-12T17:56:58.770Z,87.79
2023-12-12T17:57:58.689Z,87.86
2023-12-12T17:59:01.220Z,87.88
2023-12-12T17:59:58.791Z,88.07
2023-12-12T18:00:58.911Z,88.26
2023-12-12T18:01:58.881Z,88.33
2023-12-12T18:02:58.618Z,88.39
2023-12-12T18:03:58.751Z,88.45
2023-12-12T18:04:58.908Z,88.41
2023-12-12T18:05:59.389Z,88.39
2023-12-12T18:15:44.530Z,90.92
2023-12-12T18:16:44.064Z,89.30
2023-12-12T18:17:43.849Z,88.82
2023-12-12T18:20:04.654Z,89.13
2023-12-12T18:21:04.109Z,88.88
2023-12-12T18:22:04.305Z,88.99
2023-12-12T18:23:04.492Z,88.98
2023-12-12T18:24:04.763Z,89.05
2023-12-12T18:25:04.013Z,89.07
2023-12-12T18:26:03.977Z,89.12
2023-12-12T18:27:03.995Z,89.08
2023-12-12T18:34:42.178Z,90.31
2023-12-12T18:39:44.469Z,91.59
2023-12-12T18:40:44.254Z,90.00
2023-12-12T18:41:44.162Z,89.64
2023-12-12T18:42:45.395Z,89.40
2023-12-12T18:43:44.878Z,89.34
2023-12-12T18:44:44.368Z,89.32
2023-12-12T18:50:20.736Z,91.73
2023-12-12T18:51:14.103Z,90.24
2023-12-12T18:53:34.532Z,90.11
2023-12-12T18:58:43.633Z,92.16
2023-12-12T18:59:33.199Z,90.75
2023-12-12T19:00:33.450Z,90.32
2023-12-12T19:01:33.502Z,90.13
2023-12-12T19:06:02.127Z,90.52
2023-12-12T19:12:03.459Z,92.03
2023-12-12T19:22:49.872Z,92.03
2023-12-12T19:23:38.685Z,90.60
2023-12-12T19:43:15.045Z,90.86
2023-12-12T19:44:14.680Z,90.08
2023-12-12T19:46:44.951Z,91.39
2023-12-12T19:47:40.870Z,90.23
2023-12-12T19:48:40.070Z,90.02
2023-12-12T19:55:43.058Z,91.20
2023-12-12T19:59:54.334Z,91.51
2023-12-12T20:05:37.100Z,92.91
2023-12-12T20:06:36.738Z,91.38
2023-12-12T20:07:37.007Z,90.90
2023-12-12T20:08:36.550Z,90.71
2023-12-12T20:09:36.587Z,90.60
2023-12-12T20:10:37.997Z,90.50
2023-12-12T20:11:37.175Z,90.28
2023-12-12T20:12:36.468Z,90.20
2023-12-12T20:22:28.928Z,93.11
2023-12-12T20:26:27.919Z,93.21
2023-12-12T20:32:10.333Z,92.06
2023-12-12T20:36:41.448Z,93.08
2023-12-12T20:37:41.281Z,91.60
2023-12-12T20:40:00.990Z,91.50
2023-12-12T20:41:00.961Z,91.07
2023-12-12T20:42:01.661Z,90.86
2023-12-12T20:46:29.950Z,91.60
2023-12-12T20:47:30.969Z,91.14
2023-12-12T20:50:54.089Z,92.83
2023-12-12T20:51:46.806Z,91.50
2023-12-12T20:52:45.447Z,91.23
2023-12-12T20:57:16.004Z,93.19
2023-12-12T21:04:47.416Z,93.82
2023-12-12T21:09:35.653Z,93.99
2023-12-12T21:10:35.245Z,92.50
2023-12-12T21:14:51.204Z,93.81
2023-12-12T21:15:42.422Z,92.42
2023-12-12T21:16:43.654Z,91.85
2023-12-12T21:19:30.801Z,93.24
2023-12-12T21:20:30.224Z,91.85
2023-12-12T21:21:30.330Z,91.41
2023-12-12T21:25:11.368Z,93.12
2023-12-12T21:26:12.140Z,91.68
2023-12-12T21:31:10.568Z,91.68
2023-12-12T21:32:10.560Z,91.51
2023-12-12T21:33:10.904Z,91.44
2023-12-12T21:34:10.581Z,91.34
2023-12-12T21:36:30.402Z,91.69
2023-12-12T21:37:30.694Z,91.54
2023-12-12T21:46:43.380Z,92.87
2023-12-12T21:47:42.904Z,91.41
2023-12-12T21:52:54.240Z,91.40
2023-12-12T22:05:46.093Z,92.54
2023-12-12T22:17:06.841Z,91.30
2023-12-12T22:18:06.818Z,90.53
2023-12-12T22:19:06.797Z,90.18
2023-12-12T22:24:08.215Z,92.09
2023-12-12T22:37:56.652Z,93.73
2023-12-12T22:38:59.495Z,92.36
2023-12-12T22:39:56.427Z,91.91
2023-12-12T22:43:40.887Z,93.64
2023-12-12T22:46:34.389Z,93.51
2023-12-12T22:47:34.483Z,92.10
2023-12-12T22:48:34.375Z,91.61
2023-12-12T22:49:34.768Z,91.35
2023-12-12T22:50:36.399Z,91.05
2023-12-12T22:54:53.365Z,92.90
2023-12-12T22:55:53.860Z,91.46
2023-12-12T23:02:55.877Z,93.38
2023-12-12T23:07:03.822Z,93.33
2023-12-12T23:13:12.781Z,93.38
2023-12-12T23:15:56.732Z,93.25
2023-12-12T23:20:47.038Z,93.66
2023-12-12T23:30:41.574Z,94.02
2023-12-12T23:31:29.350Z,92.74
2023-12-12T23:33:49.852Z,92.35
2023-12-12T23:36:09.040Z,92.17
2023-12-12T23:40:51.050Z,93.82
2023-12-12T23:41:50.189Z,92.33
2023-12-12T23:42:50.235Z,91.91
2023-12-12T23:46:08.933Z,93.46
2023-12-12T23:46:56.560Z,92.27
2023-12-12T23:49:24.342Z,92.12
2023-12-12T23:52:08.538Z,93.45
2023-12-12T23:54:38.089Z,93.49
2023-12-12T23:55:37.498Z,92.26
